首页
METAR-TAF:

METAR-TAF

机场 :

克拉根福, 奥地利

纬度: 46-39N, 经度: 014-20E, 海拔: 448米

当前天气观测

该预报发布于20分钟前的15:50 UTC
风速3节,风向,在东北之间变化
温度 22°C
湿度 35%
气压 1017 hPa
能见度10公里或以上
多云层高于8000英尺

METAR: LOWK 011550Z AUTO 10003KT 040V170 9999 BKN080 22/06 Q1017 NOSIG

时间: 18:10 (16:10 UTC)

预报

该预报发布于4小时和55分钟前的11:15 UTC
预报有效从01日的 12点(UTC)到 02日的 12点(UTC)
风速7节,风向
能见度10公里或以上
少量云层高于6000英尺
散云层高于9000英尺
短暂存在
从 01日的 13点(UTC)到 01日的 18点(UTC)
风速15节,风向北转东北
成为
从 01日的 18点(UTC)到 01日的 20点(UTC)
风速2节,风向多变

TAF: LOWK 011115Z 0112/0212 10007KT 9999 FEW060 SCT090 TX23/0114Z TN10/0204Z TEMPO 0113/0118 02015KT BECMG 0118/0120 VRB02KT

超过4000个机场的气象观测和天气预报(METAR&TAF报告)。

可查询的气象台以黄色和红色小点在地图上表示。

将鼠标移到小点上方,可查看气象台名称。

然后点击查看天气观测和预报。

如需切换地图:点击带黑十字的绿色按钮放大地图;点击带横线的绿色按钮缩小地图;或者点击绿色箭头查看邻近地区的地图。


METAR-TAF: